sensor_id;sensor_type;location;lat;lon;timestamp;P1;durP1;ratioP1;P2;durP2;ratioP2
39896;SDS011;25567;48.276;14.242;2022-09-13T00:00:15;14.98;;;4.47;;
39896;SDS011;25567;48.276;14.242;2022-09-13T00:02:42;7.63;;;4.05;;
39896;SDS011;25567;48.276;14.242;2022-09-13T00:05:08;9.77;;;4.35;;
39896;SDS011;25567;48.276;14.242;2022-09-13T00:07:35;10.95;;;4.65;;
39896;SDS011;25567;48.276;14.242;2022-09-13T00:10:02;8.80;;;4.90;;
39896;SDS011;25567;48.276;14.242;2022-09-13T00:12:29;10.02;;;4.50;;
39896;SDS011;25567;48.276;14.242;2022-09-13T00:14:56;7.35;;;4.43;;
39896;SDS011;25567;48.276;14.242;2022-09-13T00:17:25;10.13;;;4.13;;
39896;SDS011;25567;48.276;14.242;2022-09-13T00:19:52;13.88;;;5.10;;
39896;SDS011;25567;48.276;14.242;2022-09-13T00:22:19;9.70;;;4.68;;
39896;SDS011;25567;48.276;14.242;2022-09-13T00:24:45;14.13;;;4.57;;
39896;SDS011;25567;48.276;14.242;2022-09-13T00:27:12;20.85;;;5.68;;
39896;SDS011;25567;48.276;14.242;2022-09-13T00:29:38;6.47;;;4.30;;
39896;SDS011;25567;48.276;14.242;2022-09-13T00:32:05;17.73;;;4.40;;
39896;SDS011;25567;48.276;14.242;2022-09-13T00:34:32;13.18;;;4.60;;
39896;SDS011;25567;48.276;14.242;2022-09-13T00:36:58;16.63;;;4.80;;
39896;SDS011;25567;48.276;14.242;2022-09-13T00:39:25;8.60;;;4.20;;
39896;SDS011;25567;48.276;14.242;2022-09-13T00:41:51;9.38;;;4.10;;
39896;SDS011;25567;48.276;14.242;2022-09-13T00:47:18;11.70;;;4.53;;
39896;SDS011;25567;48.276;14.242;2022-09-13T00:49:48;6.63;;;4.30;;
39896;SDS011;25567;48.276;14.242;2022-09-13T00:52:19;14.65;;;4.55;;
39896;SDS011;25567;48.276;14.242;2022-09-13T00:54:50;7.80;;;4.32;;
39896;SDS011;25567;48.276;14.242;2022-09-13T00:57:25;10.48;;;4.10;;
39896;SDS011;25567;48.276;14.242;2022-09-13T00:59:57;8.90;;;3.88;;
39896;SDS011;25567;48.276;14.242;2022-09-13T01:02:34;10.77;;;5.05;;
39896;SDS011;25567;48.276;14.242;2022-09-13T01:05:01;6.68;;;4.20;;
39896;SDS011;25567;48.276;14.242;2022-09-13T01:07:28;11.70;;;3.88;;
39896;SDS011;25567;48.276;14.242;2022-09-13T01:09:55;10.57;;;4.68;;
39896;SDS011;25567;48.276;14.242;2022-09-13T01:14:51;7.65;;;4.20;;
39896;SDS011;25567;48.276;14.242;2022-09-13T01:17:18;11.23;;;4.28;;
39896;SDS011;25567;48.276;14.242;2022-09-13T01:19:45;12.20;;;4.30;;
39896;SDS011;25567;48.276;14.242;2022-09-13T01:25:05;11.40;;;4.43;;
39896;SDS011;25567;48.276;14.242;2022-09-13T01:28:00;12.38;;;5.03;;
39896;SDS011;25567;48.276;14.242;2022-09-13T01:39:00;9.63;;;4.20;;
39896;SDS011;25567;48.276;14.242;2022-09-13T01:42:09;9.65;;;4.55;;
39896;SDS011;25567;48.276;14.242;2022-09-13T01:44:37;9.48;;;4.80;;
39896;SDS011;25567;48.276;14.242;2022-09-13T01:47:39;12.10;;;4.55;;
39896;SDS011;25567;48.276;14.242;2022-09-13T01:53:02;11.93;;;5.43;;
39896;SDS011;25567;48.276;14.242;2022-09-13T01:55:39;15.15;;;5.28;;
39896;SDS011;25567;48.276;14.242;2022-09-13T02:00:47;10.95;;;5.05;;
39896;SDS011;25567;48.276;14.242;2022-09-13T02:03:25;15.10;;;5.05;;
39896;SDS011;25567;48.276;14.242;2022-09-13T02:06:01;11.32;;;5.20;;
39896;SDS011;25567;48.276;14.242;2022-09-13T02:08:39;14.07;;;5.53;;
39896;SDS011;25567;48.276;14.242;2022-09-13T02:11:09;13.88;;;6.53;;
39896;SDS011;25567;48.276;14.242;2022-09-13T02:13:41;13.50;;;5.55;;
39896;SDS011;25567;48.276;14.242;2022-09-13T02:16:18;17.77;;;5.90;;
39896;SDS011;25567;48.276;14.242;2022-09-13T02:18:53;12.70;;;5.60;;
39896;SDS011;25567;48.276;14.242;2022-09-13T02:21:25;12.88;;;5.32;;
39896;SDS011;25567;48.276;14.242;2022-09-13T02:24:04;14.10;;;5.28;;
39896;SDS011;25567;48.276;14.242;2022-09-13T02:26:33;12.48;;;5.97;;
39896;SDS011;25567;48.276;14.242;2022-09-13T02:29:05;15.77;;;5.78;;
39896;SDS011;25567;48.276;14.242;2022-09-13T02:31:38;11.70;;;5.00;;
39896;SDS011;25567;48.276;14.242;2022-09-13T02:34:13;11.80;;;5.00;;
39896;SDS011;25567;48.276;14.242;2022-09-13T02:36:43;11.93;;;5.63;;
39896;SDS011;25567;48.276;14.242;2022-09-13T02:39:15;11.88;;;5.55;;
39896;SDS011;25567;48.276;14.242;2022-09-13T02:44:31;18.38;;;6.57;;
39896;SDS011;25567;48.276;14.242;2022-09-13T02:47:05;19.15;;;6.68;;
39896;SDS011;25567;48.276;14.242;2022-09-13T02:52:37;16.35;;;6.25;;
39896;SDS011;25567;48.276;14.242;2022-09-13T02:55:28;12.10;;;6.05;;
39896;SDS011;25567;48.276;14.242;2022-09-13T02:57:59;14.63;;;5.93;;
39896;SDS011;25567;48.276;14.242;2022-09-13T03:00:38;15.43;;;6.60;;
39896;SDS011;25567;48.276;14.242;2022-09-13T03:03:07;16.77;;;5.80;;
39896;SDS011;25567;48.276;14.242;2022-09-13T03:05:37;17.80;;;6.93;;
39896;SDS011;25567;48.276;14.242;2022-09-13T03:08:05;17.88;;;6.22;;
39896;SDS011;25567;48.276;14.242;2022-09-13T03:10:41;21.85;;;7.32;;
39896;SDS011;25567;48.276;14.242;2022-09-13T03:13:23;15.90;;;6.68;;
39896;SDS011;25567;48.276;14.242;2022-09-13T03:19:12;13.25;;;5.65;;
39896;SDS011;25567;48.276;14.242;2022-09-13T03:24:58;9.30;;;4.75;;
39896;SDS011;25567;48.276;14.242;2022-09-13T03:30:19;13.43;;;5.32;;
39896;SDS011;25567;48.276;14.242;2022-09-13T03:32:50;10.95;;;5.55;;
39896;SDS011;25567;48.276;14.242;2022-09-13T03:40:48;15.80;;;6.30;;
39896;SDS011;25567;48.276;14.242;2022-09-13T03:46:02;14.52;;;5.45;;
39896;SDS011;25567;48.276;14.242;2022-09-13T03:48:33;18.67;;;5.95;;
39896;SDS011;25567;48.276;14.242;2022-09-13T03:51:03;17.73;;;6.35;;
39896;SDS011;25567;48.276;14.242;2022-09-13T03:53:34;12.18;;;5.97;;
39896;SDS011;25567;48.276;14.242;2022-09-13T03:56:14;21.35;;;6.68;;
39896;SDS011;25567;48.276;14.242;2022-09-13T03:58:43;17.85;;;6.95;;
39896;SDS011;25567;48.276;14.242;2022-09-13T04:01:11;13.98;;;6.15;;
39896;SDS011;25567;48.276;14.242;2022-09-13T04:03:38;15.02;;;5.53;;
39896;SDS011;25567;48.276;14.242;2022-09-13T04:06:05;16.67;;;5.25;;
39896;SDS011;25567;48.276;14.242;2022-09-13T04:08:32;14.93;;;5.78;;
39896;SDS011;25567;48.276;14.242;2022-09-13T04:10:59;14.05;;;5.35;;
39896;SDS011;25567;48.276;14.242;2022-09-13T04:13:26;11.90;;;5.63;;
39896;SDS011;25567;48.276;14.242;2022-09-13T04:15:53;16.80;;;5.78;;
39896;SDS011;25567;48.276;14.242;2022-09-13T04:18:24;11.50;;;5.85;;
39896;SDS011;25567;48.276;14.242;2022-09-13T04:20:55;14.65;;;5.88;;
39896;SDS011;25567;48.276;14.242;2022-09-13T04:23:23;18.55;;;6.45;;
39896;SDS011;25567;48.276;14.242;2022-09-13T04:25:51;14.93;;;6.22;;
39896;SDS011;25567;48.276;14.242;2022-09-13T04:28:18;13.00;;;6.13;;
39896;SDS011;25567;48.276;14.242;2022-09-13T04:30:47;13.68;;;6.80;;
39896;SDS011;25567;48.276;14.242;2022-09-13T04:33:14;20.63;;;6.55;;
39896;SDS011;25567;48.276;14.242;2022-09-13T04:35:42;13.90;;;6.20;;
39896;SDS011;25567;48.276;14.242;2022-09-13T04:38:09;15.25;;;6.45;;
39896;SDS011;25567;48.276;14.242;2022-09-13T04:40:36;19.10;;;6.80;;
39896;SDS011;25567;48.276;14.242;2022-09-13T04:43:03;16.60;;;6.63;;
39896;SDS011;25567;48.276;14.242;2022-09-13T04:45:30;20.15;;;6.57;;
39896;SDS011;25567;48.276;14.242;2022-09-13T04:47:57;15.95;;;6.85;;
39896;SDS011;25567;48.276;14.242;2022-09-13T04:50:25;18.00;;;6.80;;
39896;SDS011;25567;48.276;14.242;2022-09-13T04:52:53;21.45;;;7.45;;
39896;SDS011;25567;48.276;14.242;2022-09-13T04:55:21;14.93;;;6.70;;
39896;SDS011;25567;48.276;14.242;2022-09-13T04:57:51;15.77;;;7.85;;
39896;SDS011;25567;48.276;14.242;2022-09-13T05:00:19;15.50;;;6.97;;
39896;SDS011;25567;48.276;14.242;2022-09-13T05:02:45;18.65;;;7.10;;
39896;SDS011;25567;48.276;14.242;2022-09-13T05:05:12;16.77;;;7.40;;
39896;SDS011;25567;48.276;14.242;2022-09-13T05:07:38;25.08;;;6.68;;
39896;SDS011;25567;48.276;14.242;2022-09-13T05:10:05;16.75;;;7.10;;
39896;SDS011;25567;48.276;14.242;2022-09-13T05:12:32;15.40;;;6.70;;
39896;SDS011;25567;48.276;14.242;2022-09-13T05:14:59;16.48;;;7.28;;
39896;SDS011;25567;48.276;14.242;2022-09-13T05:17:25;18.35;;;6.18;;
39896;SDS011;25567;48.276;14.242;2022-09-13T05:19:52;14.75;;;6.30;;
39896;SDS011;25567;48.276;14.242;2022-09-13T05:22:19;11.93;;;6.65;;
39896;SDS011;25567;48.276;14.242;2022-09-13T05:24:46;16.77;;;6.82;;
39896;SDS011;25567;48.276;14.242;2022-09-13T05:27:12;12.32;;;6.57;;
39896;SDS011;25567;48.276;14.242;2022-09-13T05:29:39;13.88;;;6.93;;
39896;SDS011;25567;48.276;14.242;2022-09-13T05:32:06;14.27;;;6.95;;
39896;SDS011;25567;48.276;14.242;2022-09-13T05:34:33;14.18;;;7.35;;
39896;SDS011;25567;48.276;14.242;2022-09-13T05:37:00;20.58;;;8.32;;
39896;SDS011;25567;48.276;14.242;2022-09-13T05:39:27;20.13;;;9.30;;
39896;SDS011;25567;48.276;14.242;2022-09-13T05:42:09;19.20;;;8.35;;
39896;SDS011;25567;48.276;14.242;2022-09-13T05:44:35;19.85;;;9.18;;
39896;SDS011;25567;48.276;14.242;2022-09-13T05:47:02;16.40;;;8.55;;
39896;SDS011;25567;48.276;14.242;2022-09-13T05:49:28;21.15;;;9.38;;
39896;SDS011;25567;48.276;14.242;2022-09-13T05:51:55;16.80;;;8.50;;
39896;SDS011;25567;48.276;14.242;2022-09-13T05:54:21;20.02;;;8.55;;
39896;SDS011;25567;48.276;14.242;2022-09-13T05:56:48;16.70;;;8.90;;
39896;SDS011;25567;48.276;14.242;2022-09-13T05:59:17;20.75;;;10.85;;
39896;SDS011;25567;48.276;14.242;2022-09-13T06:01:44;27.05;;;13.23;;
39896;SDS011;25567;48.276;14.242;2022-09-13T06:04:11;32.40;;;15.13;;
39896;SDS011;25567;48.276;14.242;2022-09-13T06:06:38;23.45;;;12.75;;
39896;SDS011;25567;48.276;14.242;2022-09-13T06:09:04;25.17;;;11.77;;
39896;SDS011;25567;48.276;14.242;2022-09-13T06:11:33;20.67;;;10.52;;
39896;SDS011;25567;48.276;14.242;2022-09-13T06:14:00;24.83;;;10.35;;
39896;SDS011;25567;48.276;14.242;2022-09-13T06:16:26;21.55;;;10.77;;
39896;SDS011;25567;48.276;14.242;2022-09-13T06:18:53;22.83;;;10.10;;
39896;SDS011;25567;48.276;14.242;2022-09-13T06:21:21;23.58;;;9.27;;
39896;SDS011;25567;48.276;14.242;2022-09-13T06:23:54;18.30;;;10.00;;
39896;SDS011;25567;48.276;14.242;2022-09-13T06:26:22;18.42;;;9.98;;
39896;SDS011;25567;48.276;14.242;2022-09-13T06:28:51;19.33;;;9.93;;
39896;SDS011;25567;48.276;14.242;2022-09-13T06:31:19;19.27;;;10.88;;
39896;SDS011;25567;48.276;14.242;2022-09-13T06:33:47;21.95;;;10.35;;
39896;SDS011;25567;48.276;14.242;2022-09-13T06:36:15;19.15;;;10.65;;
39896;SDS011;25567;48.276;14.242;2022-09-13T06:38:44;19.90;;;10.38;;
39896;SDS011;25567;48.276;14.242;2022-09-13T06:41:12;23.27;;;11.32;;
39896;SDS011;25567;48.276;14.242;2022-09-13T06:43:44;19.27;;;10.30;;
39896;SDS011;25567;48.276;14.242;2022-09-13T06:46:12;20.33;;;11.13;;
39896;SDS011;25567;48.276;14.242;2022-09-13T06:48:41;22.58;;;11.88;;
39896;SDS011;25567;48.276;14.242;2022-09-13T06:51:11;20.50;;;10.98;;
39896;SDS011;25567;48.276;14.242;2022-09-13T06:53:40;18.95;;;10.82;;
39896;SDS011;25567;48.276;14.242;2022-09-13T06:56:10;22.30;;;11.07;;
39896;SDS011;25567;48.276;14.242;2022-09-13T06:58:37;20.42;;;10.48;;
39896;SDS011;25567;48.276;14.242;2022-09-13T07:03:36;21.77;;;11.60;;
39896;SDS011;25567;48.276;14.242;2022-09-13T07:06:06;20.60;;;10.40;;
39896;SDS011;25567;48.276;14.242;2022-09-13T07:08:34;27.63;;;11.02;;
39896;SDS011;25567;48.276;14.242;2022-09-13T07:11:01;21.00;;;10.73;;
39896;SDS011;25567;48.276;14.242;2022-09-13T07:13:28;21.35;;;10.82;;
39896;SDS011;25567;48.276;14.242;2022-09-13T07:15:55;19.77;;;10.80;;
39896;SDS011;25567;48.276;14.242;2022-09-13T07:18:27;19.63;;;10.45;;
39896;SDS011;25567;48.276;14.242;2022-09-13T07:21:02;20.52;;;10.45;;
39896;SDS011;25567;48.276;14.242;2022-09-13T07:23:31;18.17;;;10.18;;
39896;SDS011;25567;48.276;14.242;2022-09-13T07:25:58;23.80;;;9.65;;
39896;SDS011;25567;48.276;14.242;2022-09-13T07:28:32;22.20;;;9.88;;
39896;SDS011;25567;48.276;14.242;2022-09-13T07:31:05;23.58;;;10.73;;
39896;SDS011;25567;48.276;14.242;2022-09-13T07:33:34;20.48;;;10.10;;
39896;SDS011;25567;48.276;14.242;2022-09-13T07:36:01;16.65;;;9.90;;
39896;SDS011;25567;48.276;14.242;2022-09-13T07:38:32;18.92;;;11.20;;
39896;SDS011;25567;48.276;14.242;2022-09-13T07:41:00;29.58;;;10.30;;
39896;SDS011;25567;48.276;14.242;2022-09-13T07:43:30;16.30;;;10.05;;
39896;SDS011;25567;48.276;14.242;2022-09-13T07:45:57;19.13;;;9.95;;
39896;SDS011;25567;48.276;14.242;2022-09-13T07:48:27;20.23;;;10.90;;
39896;SDS011;25567;48.276;14.242;2022-09-13T07:51:07;17.60;;;9.38;;
39896;SDS011;25567;48.276;14.242;2022-09-13T07:53:36;24.15;;;9.90;;
39896;SDS011;25567;48.276;14.242;2022-09-13T07:56:06;21.60;;;10.05;;
39896;SDS011;25567;48.276;14.242;2022-09-13T07:58:34;21.95;;;9.63;;
39896;SDS011;25567;48.276;14.242;2022-09-13T08:01:07;16.38;;;9.25;;
39896;SDS011;25567;48.276;14.242;2022-09-13T08:03:35;18.85;;;10.00;;
39896;SDS011;25567;48.276;14.242;2022-09-13T08:06:02;17.58;;;9.30;;
39896;SDS011;25567;48.276;14.242;2022-09-13T08:08:30;19.98;;;8.68;;
39896;SDS011;25567;48.276;14.242;2022-09-13T08:10:58;16.35;;;9.73;;
39896;SDS011;25567;48.276;14.242;2022-09-13T08:13:26;19.27;;;8.60;;
39896;SDS011;25567;48.276;14.242;2022-09-13T08:15:55;16.38;;;8.63;;
39896;SDS011;25567;48.276;14.242;2022-09-13T08:18:21;15.30;;;9.20;;
39896;SDS011;25567;48.276;14.242;2022-09-13T08:20:54;15.07;;;8.82;;
39896;SDS011;25567;48.276;14.242;2022-09-13T08:23:22;15.10;;;9.02;;
39896;SDS011;25567;48.276;14.242;2022-09-13T08:25:50;14.48;;;8.52;;
39896;SDS011;25567;48.276;14.242;2022-09-13T08:28:18;14.82;;;8.27;;
39896;SDS011;25567;48.276;14.242;2022-09-13T08:30:52;16.73;;;8.93;;
39896;SDS011;25567;48.276;14.242;2022-09-13T08:33:19;15.02;;;8.82;;
39896;SDS011;25567;48.276;14.242;2022-09-13T08:35:50;19.60;;;9.32;;
39896;SDS011;25567;48.276;14.242;2022-09-13T08:38:18;16.58;;;9.35;;
39896;SDS011;25567;48.276;14.242;2022-09-13T08:40:48;15.52;;;8.30;;
39896;SDS011;25567;48.276;14.242;2022-09-13T08:43:29;14.70;;;8.43;;
39896;SDS011;25567;48.276;14.242;2022-09-13T08:49:00;14.85;;;8.45;;
39896;SDS011;25567;48.276;14.242;2022-09-13T08:51:40;15.65;;;7.88;;
39896;SDS011;25567;48.276;14.242;2022-09-13T08:54:13;15.77;;;9.07;;
39896;SDS011;25567;48.276;14.242;2022-09-13T08:56:55;15.77;;;8.70;;
39896;SDS011;25567;48.276;14.242;2022-09-13T09:02:27;16.63;;;8.80;;
39896;SDS011;25567;48.276;14.242;2022-09-13T09:07:44;14.88;;;8.25;;
39896;SDS011;25567;48.276;14.242;2022-09-13T09:10:21;11.70;;;6.75;;
39896;SDS011;25567;48.276;14.242;2022-09-13T09:13:01;13.65;;;7.45;;
39896;SDS011;25567;48.276;14.242;2022-09-13T09:15:32;15.50;;;7.78;;
39896;SDS011;25567;48.276;14.242;2022-09-13T09:18:09;10.00;;;6.70;;
39896;SDS011;25567;48.276;14.242;2022-09-13T09:20:43;18.02;;;7.75;;
39896;SDS011;25567;48.276;14.242;2022-09-13T09:23:21;11.30;;;7.18;;
39896;SDS011;25567;48.276;14.242;2022-09-13T09:25:53;11.70;;;7.60;;
39896;SDS011;25567;48.276;14.242;2022-09-13T09:28:23;12.68;;;7.32;;
39896;SDS011;25567;48.276;14.242;2022-09-13T09:33:55;13.95;;;7.55;;
39896;SDS011;25567;48.276;14.242;2022-09-13T09:36:37;12.68;;;7.53;;
39896;SDS011;25567;48.276;14.242;2022-09-13T09:39:06;11.40;;;6.78;;
39896;SDS011;25567;48.276;14.242;2022-09-13T09:41:37;15.00;;;7.13;;
39896;SDS011;25567;48.276;14.242;2022-09-13T09:44:12;14.50;;;6.97;;
39896;SDS011;25567;48.276;14.242;2022-09-13T09:46:39;10.20;;;5.85;;
39896;SDS011;25567;48.276;14.242;2022-09-13T09:52:08;9.20;;;6.63;;
39896;SDS011;25567;48.276;14.242;2022-09-13T09:54:38;11.98;;;6.32;;
39896;SDS011;25567;48.276;14.242;2022-09-13T09:57:06;9.73;;;5.97;;
39896;SDS011;25567;48.276;14.242;2022-09-13T09:59:33;12.93;;;6.68;;
39896;SDS011;25567;48.276;14.242;2022-09-13T10:02:12;8.15;;;5.90;;
39896;SDS011;25567;48.276;14.242;2022-09-13T10:04:52;9.63;;;5.53;;
39896;SDS011;25567;48.276;14.242;2022-09-13T10:10:05;9.35;;;5.68;;
39896;SDS011;25567;48.276;14.242;2022-09-13T10:12:48;8.00;;;5.53;;
39896;SDS011;25567;48.276;14.242;2022-09-13T10:15:18;8.32;;;5.50;;
39896;SDS011;25567;48.276;14.242;2022-09-13T10:21:05;8.53;;;5.03;;
39896;SDS011;25567;48.276;14.242;2022-09-13T10:23:48;8.00;;;4.95;;
39896;SDS011;25567;48.276;14.242;2022-09-13T10:26:17;7.28;;;5.07;;
39896;SDS011;25567;48.276;14.242;2022-09-13T10:28:56;14.82;;;5.47;;
39896;SDS011;25567;48.276;14.242;2022-09-13T10:31:29;7.13;;;5.18;;
39896;SDS011;25567;48.276;14.242;2022-09-13T10:34:00;11.60;;;5.25;;
39896;SDS011;25567;48.276;14.242;2022-09-13T10:36:30;13.13;;;5.88;;
39896;SDS011;25567;48.276;14.242;2022-09-13T10:39:19;7.18;;;4.55;;
39896;SDS011;25567;48.276;14.242;2022-09-13T10:41:53;12.27;;;5.72;;
39896;SDS011;25567;48.276;14.242;2022-09-13T10:44:28;12.27;;;4.85;;
39896;SDS011;25567;48.276;14.242;2022-09-13T10:47:09;9.63;;;5.40;;
39896;SDS011;25567;48.276;14.242;2022-09-13T10:49:41;8.60;;;5.18;;
39896;SDS011;25567;48.276;14.242;2022-09-13T10:57:39;8.25;;;5.15;;
39896;SDS011;25567;48.276;14.242;2022-09-13T11:00:06;14.02;;;5.13;;
39896;SDS011;25567;48.276;14.242;2022-09-13T11:11:09;11.18;;;5.68;;
39896;SDS011;25567;48.276;14.242;2022-09-13T11:22:26;8.10;;;5.13;;
39896;SDS011;25567;48.276;14.242;2022-09-13T11:30:21;7.40;;;4.57;;
39896;SDS011;25567;48.276;14.242;2022-09-13T11:35:54;6.57;;;4.63;;
39896;SDS011;25567;48.276;14.242;2022-09-13T11:52:49;7.95;;;4.63;;
39896;SDS011;25567;48.276;14.242;2022-09-13T11:55:32;7.80;;;4.25;;
39896;SDS011;25567;48.276;14.242;2022-09-13T11:58:04;6.43;;;4.30;;
39896;SDS011;25567;48.276;14.242;2022-09-13T12:00:39;10.25;;;3.65;;
39896;SDS011;25567;48.276;14.242;2022-09-13T12:05:58;7.57;;;4.28;;
39896;SDS011;25567;48.276;14.242;2022-09-13T12:08:31;5.25;;;3.78;;
39896;SDS011;25567;48.276;14.242;2022-09-13T12:11:02;9.00;;;3.60;;
39896;SDS011;25567;48.276;14.242;2022-09-13T12:13:43;5.97;;;3.65;;
39896;SDS011;25567;48.276;14.242;2022-09-13T12:16:17;4.65;;;3.50;;
39896;SDS011;25567;48.276;14.242;2022-09-13T12:18:48;5.03;;;3.28;;
39896;SDS011;25567;48.276;14.242;2022-09-13T12:21:22;4.03;;;3.10;;
39896;SDS011;25567;48.276;14.242;2022-09-13T12:24:04;3.80;;;2.90;;
39896;SDS011;25567;48.276;14.242;2022-09-13T12:32:14;4.35;;;2.85;;
39896;SDS011;25567;48.276;14.242;2022-09-13T12:34:44;5.75;;;2.60;;
39896;SDS011;25567;48.276;14.242;2022-09-13T12:37:37;8.95;;;3.00;;
39896;SDS011;25567;48.276;14.242;2022-09-13T12:49:03;2.13;;;1.60;;
39896;SDS011;25567;48.276;14.242;2022-09-13T13:02:23;5.03;;;2.03;;
39896;SDS011;25567;48.276;14.242;2022-09-13T13:04:52;2.83;;;2.00;;
39896;SDS011;25567;48.276;14.242;2022-09-13T13:07:25;5.07;;;2.42;;
39896;SDS011;25567;48.276;14.242;2022-09-13T13:09:54;7.57;;;2.40;;
39896;SDS011;25567;48.276;14.242;2022-09-13T13:12:30;3.90;;;2.40;;
39896;SDS011;25567;48.276;14.242;2022-09-13T13:14:59;4.07;;;2.53;;
39896;SDS011;25567;48.276;14.242;2022-09-13T13:17:34;3.38;;;2.25;;
39896;SDS011;25567;48.276;14.242;2022-09-13T13:23:02;2.75;;;2.25;;
39896;SDS011;25567;48.276;14.242;2022-09-13T13:31:10;5.05;;;2.35;;
39896;SDS011;25567;48.276;14.242;2022-09-13T13:34:00;5.07;;;2.83;;
39896;SDS011;25567;48.276;14.242;2022-09-13T13:47:39;4.35;;;2.95;;
39896;SDS011;25567;48.276;14.242;2022-09-13T13:54:57;4.30;;;2.60;;
39896;SDS011;25567;48.276;14.242;2022-09-13T14:00:19;4.53;;;2.80;;
39896;SDS011;25567;48.276;14.242;2022-09-13T14:16:18;5.80;;;2.70;;
39896;SDS011;25567;48.276;14.242;2022-09-13T14:21:39;5.15;;;2.80;;
39896;SDS011;25567;48.276;14.242;2022-09-13T14:24:23;3.70;;;2.80;;
39896;SDS011;25567;48.276;14.242;2022-09-13T14:26:51;43.42;;;5.88;;
39896;SDS011;25567;48.276;14.242;2022-09-13T14:29:23;7.10;;;3.20;;
39896;SDS011;25567;48.276;14.242;2022-09-13T14:31:52;12.43;;;3.58;;
39896;SDS011;25567;48.276;14.242;2022-09-13T14:36:52;7.80;;;3.70;;
39896;SDS011;25567;48.276;14.242;2022-09-13T14:39:21;6.93;;;2.92;;
39896;SDS011;25567;48.276;14.242;2022-09-13T14:41:48;6.28;;;3.08;;
39896;SDS011;25567;48.276;14.242;2022-09-13T14:44:25;7.82;;;2.90;;
39896;SDS011;25567;48.276;14.242;2022-09-13T14:49:42;7.38;;;2.92;;
39896;SDS011;25567;48.276;14.242;2022-09-13T14:52:19;4.32;;;2.88;;
39896;SDS011;25567;48.276;14.242;2022-09-13T14:54:52;7.40;;;2.60;;
39896;SDS011;25567;48.276;14.242;2022-09-13T14:57:26;6.97;;;3.08;;
39896;SDS011;25567;48.276;14.242;2022-09-13T15:00:01;5.65;;;3.00;;
39896;SDS011;25567;48.276;14.242;2022-09-13T15:02:51;9.18;;;3.67;;
39896;SDS011;25567;48.276;14.242;2022-09-13T15:05:37;8.68;;;2.88;;
39896;SDS011;25567;48.276;14.242;2022-09-13T15:10:51;8.90;;;3.40;;
39896;SDS011;25567;48.276;14.242;2022-09-13T15:13:17;15.75;;;3.67;;
39896;SDS011;25567;48.276;14.242;2022-09-13T15:15:44;11.05;;;3.45;;
39896;SDS011;25567;48.276;14.242;2022-09-13T15:18:22;11.82;;;3.72;;
39896;SDS011;25567;48.276;14.242;2022-09-13T15:23:35;15.90;;;3.72;;
39896;SDS011;25567;48.276;14.242;2022-09-13T15:26:06;14.05;;;3.80;;
39896;SDS011;25567;48.276;14.242;2022-09-13T15:28:48;6.53;;;3.13;;
39896;SDS011;25567;48.276;14.242;2022-09-13T15:31:19;4.70;;;3.08;;
39896;SDS011;25567;48.276;14.242;2022-09-13T15:33:48;6.65;;;2.75;;
39896;SDS011;25567;48.276;14.242;2022-09-13T15:36:34;6.03;;;3.22;;
39896;SDS011;25567;48.276;14.242;2022-09-13T15:39:09;4.15;;;2.72;;
39896;SDS011;25567;48.276;14.242;2022-09-13T15:41:39;4.20;;;2.95;;
39896;SDS011;25567;48.276;14.242;2022-09-13T15:44:16;10.07;;;3.15;;
39896;SDS011;25567;48.276;14.242;2022-09-13T15:46:44;6.22;;;3.33;;
39896;SDS011;25567;48.276;14.242;2022-09-13T15:49:16;7.15;;;3.50;;
39896;SDS011;25567;48.276;14.242;2022-09-13T15:51:45;7.07;;;2.95;;
39896;SDS011;25567;48.276;14.242;2022-09-13T15:54:13;8.85;;;3.42;;
39896;SDS011;25567;48.276;14.242;2022-09-13T15:56:43;5.40;;;3.15;;
39896;SDS011;25567;48.276;14.242;2022-09-13T15:59:12;7.75;;;3.10;;
39896;SDS011;25567;48.276;14.242;2022-09-13T16:01:41;10.05;;;3.22;;
39896;SDS011;25567;48.276;14.242;2022-09-13T16:04:08;10.35;;;3.60;;
39896;SDS011;25567;48.276;14.242;2022-09-13T16:06:36;9.63;;;3.50;;
39896;SDS011;25567;48.276;14.242;2022-09-13T16:09:09;8.18;;;4.15;;
39896;SDS011;25567;48.276;14.242;2022-09-13T16:11:42;6.18;;;3.70;;
39896;SDS011;25567;48.276;14.242;2022-09-13T16:14:09;5.57;;;3.70;;
39896;SDS011;25567;48.276;14.242;2022-09-13T16:16:36;5.97;;;3.75;;
39896;SDS011;25567;48.276;14.242;2022-09-13T16:19:03;10.93;;;4.00;;
39896;SDS011;25567;48.276;14.242;2022-09-13T16:21:33;9.43;;;3.75;;
39896;SDS011;25567;48.276;14.242;2022-09-13T16:24:00;7.10;;;3.80;;
39896;SDS011;25567;48.276;14.242;2022-09-13T16:26:26;5.88;;;3.42;;
39896;SDS011;25567;48.276;14.242;2022-09-13T16:28:56;8.93;;;3.58;;
39896;SDS011;25567;48.276;14.242;2022-09-13T16:31:22;8.93;;;3.42;;
39896;SDS011;25567;48.276;14.242;2022-09-13T16:33:49;5.20;;;3.42;;
39896;SDS011;25567;48.276;14.242;2022-09-13T16:36:16;8.43;;;4.07;;
39896;SDS011;25567;48.276;14.242;2022-09-13T16:38:43;5.88;;;4.03;;
39896;SDS011;25567;48.276;14.242;2022-09-13T16:41:09;8.13;;;3.88;;
39896;SDS011;25567;48.276;14.242;2022-09-13T16:43:36;5.20;;;3.88;;
39896;SDS011;25567;48.276;14.242;2022-09-13T16:46:05;7.50;;;3.65;;
39896;SDS011;25567;48.276;14.242;2022-09-13T16:48:33;10.77;;;3.83;;
39896;SDS011;25567;48.276;14.242;2022-09-13T16:51:01;5.95;;;3.40;;
39896;SDS011;25567;48.276;14.242;2022-09-13T16:53:30;5.75;;;3.47;;
39896;SDS011;25567;48.276;14.242;2022-09-13T16:58:42;8.48;;;3.88;;
39896;SDS011;25567;48.276;14.242;2022-09-13T17:01:12;8.88;;;4.22;;
39896;SDS011;25567;48.276;14.242;2022-09-13T17:03:41;7.68;;;4.15;;
39896;SDS011;25567;48.276;14.242;2022-09-13T17:06:09;14.85;;;4.32;;
39896;SDS011;25567;48.276;14.242;2022-09-13T17:08:39;7.03;;;3.42;;
39896;SDS011;25567;48.276;14.242;2022-09-13T17:11:08;7.70;;;4.35;;
39896;SDS011;25567;48.276;14.242;2022-09-13T17:13:37;5.80;;;3.70;;
39896;SDS011;25567;48.276;14.242;2022-09-13T17:16:05;8.63;;;4.35;;
39896;SDS011;25567;48.276;14.242;2022-09-13T17:18:43;10.90;;;5.25;;
39896;SDS011;25567;48.276;14.242;2022-09-13T17:21:09;14.48;;;4.45;;
39896;SDS011;25567;48.276;14.242;2022-09-13T17:23:36;9.32;;;4.28;;
39896;SDS011;25567;48.276;14.242;2022-09-13T17:26:03;7.70;;;4.35;;
39896;SDS011;25567;48.276;14.242;2022-09-13T17:28:29;6.07;;;4.50;;
39896;SDS011;25567;48.276;14.242;2022-09-13T17:30:56;11.88;;;5.20;;
39896;SDS011;25567;48.276;14.242;2022-09-13T17:33:27;6.78;;;4.10;;
39896;SDS011;25567;48.276;14.242;2022-09-13T17:38:39;8.48;;;4.57;;
39896;SDS011;25567;48.276;14.242;2022-09-13T17:41:08;5.93;;;4.65;;
39896;SDS011;25567;48.276;14.242;2022-09-13T17:43:36;9.45;;;4.22;;
39896;SDS011;25567;48.276;14.242;2022-09-13T17:46:05;12.93;;;8.70;;
39896;SDS011;25567;48.276;14.242;2022-09-13T17:48:33;15.82;;;7.00;;
39896;SDS011;25567;48.276;14.242;2022-09-13T17:51:01;10.23;;;5.20;;
39896;SDS011;25567;48.276;14.242;2022-09-13T17:53:31;10.50;;;5.28;;
39896;SDS011;25567;48.276;14.242;2022-09-13T17:56:02;7.93;;;5.03;;
39896;SDS011;25567;48.276;14.242;2022-09-13T17:58:28;8.35;;;5.03;;
39896;SDS011;25567;48.276;14.242;2022-09-13T18:00:59;9.43;;;6.22;;
39896;SDS011;25567;48.276;14.242;2022-09-13T18:03:27;15.00;;;6.35;;
39896;SDS011;25567;48.276;14.242;2022-09-13T18:05:56;13.63;;;5.68;;
39896;SDS011;25567;48.276;14.242;2022-09-13T18:08:25;10.40;;;4.82;;